Webcam Richtung Westen

Webcam27

Webcam Richtung Norden

Webcam36

Webcam Richtung Osten

Webcam09

Wetter(Würzburg):
151700Z AUTO 31007G13KT 48KM FEW044 SCT059 20/11 Q1014
		
Wed 15.07.2020, 17:00 UTC

Sichtweite bis zu 48 km
Wind aus 310° mit 07kt, in Böen bis zu 13kt
vereinzelte Wolken (1-2 Achtel) bei 4400 Fuß
einige Wolken (3-4 Achtel) bei 5900 Fuß
Temperatur: 20 °C
Taupunkt: 11 °C
QNH: 1014 hPa
                         Heute        Morgen
                         15.07        16.07
--------------------------------------------
Beginn der Dämmerung     02:47        02:48
Sonnenaufgang            03:29        03:30
Sonnenuntergang          19:23        19:23
Ende der Dämmerung       20:05        20:04

Alle Zeiten in UTC